This is the latest recevied weather packets stored in our database for station/object N3WPH. If no packets are shown the sender has not sent any weather packets the latest 1 day(s).
| Time | Temp. | Humidity | Pressure | Rain* | Wind** | Luminosity | Snow |
|---|---|---|---|---|---|---|---|
| 1778029726 | 20° C | 53% | 1008.1 hPa | 0 mm | - | 0 W/m² | - |
| 1778029121 | 21.11° C | 48% | 1008.1 hPa | 0 mm | - | 0 W/m² | - |
| 1778028818 | 21.67° C | 47% | 1007.7 hPa | 0 mm | - | 0 W/m² | - |
| 1778028513 | 21.67° C | 46% | 1007.9 hPa | 0 mm | - | 0 W/m² | - |
| 1778027907 | 22.22° C | 45% | 1007.8 hPa | 0 mm | - | 0 W/m² | - |
| 1778027604 | 22.22° C | 45% | 1007.7 hPa | 0 mm | - | 0 W/m² | - |
| 1778027300 | 22.22° C | 45% | 1007.8 hPa | 0 mm | - | 0 W/m² | - |
| 1778026997 | 23.33° C | 43% | 1007.9 hPa | 0 mm | - | 0 W/m² | - |
| 1778026390 | 23.33° C | 42% | 1007.6 hPa | 0 mm | - | 0 W/m² | - |
| 1778025481 | 23.33° C | 41% | 1007.7 hPa | 0 mm | - | 0 W/m² | - |
| 1778025179 | 23.89° C | 41% | 1007.5 hPa | 0 mm | - | 1 W/m² | - |
| 1778023362 | 23.89° C | 39% | 1007.4 hPa | 0 mm | - | 13 W/m² | - |
| 1778023058 | 23.89° C | 40% | 1007.1 hPa | 0 mm | - | 12 W/m² | - |
| 1778020028 | 24.44° C | 40% | 1007 hPa | 0 mm | - | 11 W/m² | - |
| 1778019118 | 23.89° C | 41% | 1006.8 hPa | 0 mm | - | 21 W/m² | - |
| 1778017606 | 23.89° C | 42% | 1007 hPa | 0 mm | - | 52 W/m² | - |
| 1778017303 | 24.44° C | 42% | 1007 hPa | 0 mm | - | 32 W/m² | - |
| 1778016697 | 24.44° C | 41% | 1007 hPa | 0 mm | - | 23 W/m² | - |
| 1778016091 | 25° C | 39% | 1006.9 hPa | 0 mm | - | 12 W/m² | - |
| 1778015485 | 25° C | 37% | 1006.7 hPa | 0 mm | - | 32 W/m² | - |
| 1778014878 | 25.56° C | 37% | 1006.4 hPa | 0 mm | - | 84 W/m² | - |
| 1778012757 | 25° C | 36% | 1006.5 hPa | 0 mm | - | 47 W/m² | - |
| 1778011848 | 25.56° C | 35% | 1006.6 hPa | 0 mm | - | 128 W/m² | - |
| 1778009726 | 27.78° C | 33% | 1006.4 hPa | 0 mm | - | 670 W/m² | - |
| 1778008517 | 26.67° C | 33% | 1006.7 hPa | 0 mm | - | 444 W/m² | - |
* Rain latest hour (hover to see other rain measurements)
** Current wind speed in m/s (hover to see current wind gust speed)